Unicom:                    122.8

AWOS:                  118.275

Elevation           1458’ MSL

TPA:                   2500’ MSL

06/24:         5003’ L   75’ W

PAPI:       06/Left     24/Left

(Operate lights on unicom freq.)

Traffic Pattern: Left

Beacon: Sunset to Sunrise

Windsock: yes, lighted

Segmented Circle: No

 

Cleveland Center: 126.72/291.65

FSS: Altoona

[Source: ADDS]
METAR
KFKL 200456Z AUTO 11003KT 10SM CLR 18/17 RMK AO2 SLPNO T01780172 402890117 $ =
KFKL 200520Z 2006/2106 18002KT P6SM SKC FM201400 16005KT P6SM BKN200 FM210300 18004KT P6SM VCTS BKN050CB
TAF
KFKL 200520Z 2006/2106 18002KT P6SM SKC FM201400 16005KT P6SM BKN200 FM210300 18004KT P6SM VCTS BKN050CB =
[Source: ADDS]
METAR
KDUJ 200453Z AUTO 00000KT 10SM BKN085 19/14 A3013 RMK AO2 SLP190 T01940139 402830133 =
KDUJ 200520Z 2006/2106 18002KT P6SM SKC FM201400 16004KT P6SM BKN080 FM210400 15004KT P6SM VCSH BKN080
TAF
KDUJ 200520Z 2006/2106 18002KT P6SM SKC FM201400 16004KT P6SM BKN080 FM210400 15004KT P6SM VCSH BKN080 =

Airport Organizations.